sensor_id;sensor_type;location;lat;lon;timestamp;pressure;altitude;pressure_sealevel;temperature;humidity
51031;BME280;37058;41.442;23.240;2023-06-04T00:00:25;100497.72;;;18.40;100.00
51031;BME280;37058;41.442;23.240;2023-06-04T00:02:51;100499.66;;;18.40;100.00
51031;BME280;37058;41.442;23.240;2023-06-04T00:05:17;100502.13;;;18.41;100.00
51031;BME280;37058;41.442;23.240;2023-06-04T00:07:42;100500.47;;;18.40;100.00
51031;BME280;37058;41.442;23.240;2023-06-04T00:10:08;100499.38;;;18.41;100.00
51031;BME280;37058;41.442;23.240;2023-06-04T00:12:35;100491.59;;;18.44;100.00
51031;BME280;37058;41.442;23.240;2023-06-04T00:15:00;100502.13;;;18.41;100.00
51031;BME280;37058;41.442;23.240;2023-06-04T00:17:26;100496.69;;;18.36;100.00
51031;BME280;37058;41.442;23.240;2023-06-04T00:19:52;100493.94;;;18.36;100.00
51031;BME280;37058;41.442;23.240;2023-06-04T00:22:18;100495.25;;;18.39;100.00
51031;BME280;37058;41.442;23.240;2023-06-04T00:24:44;100492.78;;;18.37;100.00
51031;BME280;37058;41.442;23.240;2023-06-04T00:27:09;100499.75;;;18.35;98.95
51031;BME280;37058;41.442;23.240;2023-06-04T00:29:35;100498.41;;;18.32;98.38
51031;BME280;37058;41.442;23.240;2023-06-04T00:32:02;100496.25;;;18.29;99.09
51031;BME280;37058;41.442;23.240;2023-06-04T00:34:28;100492.88;;;18.32;99.04
51031;BME280;37058;41.442;23.240;2023-06-04T00:36:53;100495.66;;;18.32;98.46
51031;BME280;37058;41.442;23.240;2023-06-04T00:39:19;100492.97;;;18.27;98.53
51031;BME280;37058;41.442;23.240;2023-06-04T00:41:45;100499.91;;;18.25;99.49
51031;BME280;37058;41.442;23.240;2023-06-04T00:44:10;100499.41;;;18.23;99.24
51031;BME280;37058;41.442;23.240;2023-06-04T00:46:37;100496.63;;;18.23;98.96
51031;BME280;37058;41.442;23.240;2023-06-04T00:49:05;100496.50;;;18.14;98.94
51031;BME280;37058;41.442;23.240;2023-06-04T00:51:31;100501.50;;;18.12;99.06
51031;BME280;37058;41.442;23.240;2023-06-04T00:53:58;100499.88;;;18.11;99.14
51031;BME280;37058;41.442;23.240;2023-06-04T00:56:24;100501.00;;;18.10;100.00
51031;BME280;37058;41.442;23.240;2023-06-04T00:58:50;100493.50;;;18.10;99.60
51031;BME280;37058;41.442;23.240;2023-06-04T01:04:29;100497.66;;;18.13;100.00
51031;BME280;37058;41.442;23.240;2023-06-04T01:06:57;100505.09;;;18.12;99.66
51031;BME280;37058;41.442;23.240;2023-06-04T01:09:28;100498.75;;;18.12;98.97
51031;BME280;37058;41.442;23.240;2023-06-04T01:11:54;100505.78;;;18.04;97.47
51031;BME280;37058;41.442;23.240;2023-06-04T01:14:22;100499.81;;;17.97;97.04
51031;BME280;37058;41.442;23.240;2023-06-04T01:16:56;100507.16;;;17.88;97.31
51031;BME280;37058;41.442;23.240;2023-06-04T01:22:02;100507.53;;;17.81;98.91
51031;BME280;37058;41.442;23.240;2023-06-04T01:24:28;100495.09;;;17.79;99.36
51031;BME280;37058;41.442;23.240;2023-06-04T01:26:59;100505.56;;;17.82;100.00
51031;BME280;37058;41.442;23.240;2023-06-04T01:29:26;100494.56;;;17.76;99.80
51031;BME280;37058;41.442;23.240;2023-06-04T01:31:55;100503.38;;;17.79;99.75
51031;BME280;37058;41.442;23.240;2023-06-04T01:34:22;100502.56;;;17.78;99.61
51031;BME280;37058;41.442;23.240;2023-06-04T01:36:47;100504.81;;;17.76;99.30
51031;BME280;37058;41.442;23.240;2023-06-04T01:39:13;100508.25;;;17.68;98.51
51031;BME280;37058;41.442;23.240;2023-06-04T01:41:39;100506.66;;;17.62;98.64
51031;BME280;37058;41.442;23.240;2023-06-04T01:44:05;100505.03;;;17.61;99.64
51031;BME280;37058;41.442;23.240;2023-06-04T01:46:30;100507.03;;;17.55;100.00
51031;BME280;37058;41.442;23.240;2023-06-04T01:48:56;100512.25;;;17.57;100.00
51031;BME280;37058;41.442;23.240;2023-06-04T01:51:22;100516.75;;;17.52;99.39
51031;BME280;37058;41.442;23.240;2023-06-04T01:53:48;100508.53;;;17.47;99.58
51031;BME280;37058;41.442;23.240;2023-06-04T01:56:13;100510.22;;;17.43;99.78
51031;BME280;37058;41.442;23.240;2023-06-04T01:58:39;100515.22;;;17.41;99.90
51031;BME280;37058;41.442;23.240;2023-06-04T02:01:05;100514.31;;;17.46;99.99
51031;BME280;37058;41.442;23.240;2023-06-04T02:03:32;100514.63;;;17.44;100.00
51031;BME280;37058;41.442;23.240;2023-06-04T02:06:05;100513.81;;;17.44;100.00
51031;BME280;37058;41.442;23.240;2023-06-04T02:08:34;100516.03;;;17.42;100.00
51031;BME280;37058;41.442;23.240;2023-06-04T02:11:00;100522.97;;;17.39;99.85
51031;BME280;37058;41.442;23.240;2023-06-04T02:13:26;100523.03;;;17.34;99.55
51031;BME280;37058;41.442;23.240;2023-06-04T02:15:52;100528.63;;;17.29;98.89
51031;BME280;37058;41.442;23.240;2023-06-04T02:18:19;100526.75;;;17.24;98.62
51031;BME280;37058;41.442;23.240;2023-06-04T02:20:47;100534.25;;;17.19;99.07
51031;BME280;37058;41.442;23.240;2023-06-04T02:23:14;100540.38;;;17.16;99.36
51031;BME280;37058;41.442;23.240;2023-06-04T02:25:40;100532.16;;;17.10;99.39
51031;BME280;37058;41.442;23.240;2023-06-04T02:28:06;100541.84;;;17.08;99.41
51031;BME280;37058;41.442;23.240;2023-06-04T02:30:32;100544.38;;;17.04;99.50
51031;BME280;37058;41.442;23.240;2023-06-04T02:32:58;100539.19;;;16.98;99.63
51031;BME280;37058;41.442;23.240;2023-06-04T02:35:27;100542.22;;;16.96;99.65
51031;BME280;37058;41.442;23.240;2023-06-04T02:37:53;100547.25;;;16.94;99.92
51031;BME280;37058;41.442;23.240;2023-06-04T02:40:22;100550.00;;;16.94;100.00
51031;BME280;37058;41.442;23.240;2023-06-04T02:42:47;100550.00;;;16.94;100.00
51031;BME280;37058;41.442;23.240;2023-06-04T02:45:13;100556.56;;;16.98;100.00
51031;BME280;37058;41.442;23.240;2023-06-04T02:47:39;100555.16;;;17.01;100.00
51031;BME280;37058;41.442;23.240;2023-06-04T02:50:05;100558.69;;;17.06;100.00
51031;BME280;37058;41.442;23.240;2023-06-04T02:52:31;100561.69;;;17.10;99.93
51031;BME280;37058;41.442;23.240;2023-06-04T02:54:58;100559.56;;;17.02;100.00
51031;BME280;37058;41.442;23.240;2023-06-04T02:57:24;100569.81;;;16.96;100.00
51031;BME280;37058;41.442;23.240;2023-06-04T02:59:49;100566.56;;;16.94;100.00
51031;BME280;37058;41.442;23.240;2023-06-04T03:02:15;100575.94;;;16.93;100.00
51031;BME280;37058;41.442;23.240;2023-06-04T03:04:41;100587.81;;;16.88;100.00
51031;BME280;37058;41.442;23.240;2023-06-04T03:07:09;100585.72;;;16.75;100.00
51031;BME280;37058;41.442;23.240;2023-06-04T03:09:36;100588.25;;;16.72;100.00
51031;BME280;37058;41.442;23.240;2023-06-04T03:12:03;100586.84;;;16.74;100.00
51031;BME280;37058;41.442;23.240;2023-06-04T03:14:29;100590.69;;;16.78;100.00
51031;BME280;37058;41.442;23.240;2023-06-04T03:16:59;100589.81;;;16.83;100.00
51031;BME280;37058;41.442;23.240;2023-06-04T03:19:27;100598.63;;;16.85;100.00
51031;BME280;37058;41.442;23.240;2023-06-04T03:21:53;100594.81;;;16.76;100.00
51031;BME280;37058;41.442;23.240;2023-06-04T03:24:19;100602.03;;;16.72;100.00
51031;BME280;37058;41.442;23.240;2023-06-04T03:26:45;100608.66;;;16.71;100.00
51031;BME280;37058;41.442;23.240;2023-06-04T03:29:11;100607.59;;;16.66;100.00
51031;BME280;37058;41.442;23.240;2023-06-04T03:31:37;100613.66;;;16.68;100.00
51031;BME280;37058;41.442;23.240;2023-06-04T03:34:03;100621.34;;;16.72;100.00
51031;BME280;37058;41.442;23.240;2023-06-04T03:36:29;100619.41;;;16.72;100.00
51031;BME280;37058;41.442;23.240;2023-06-04T03:39:03;100621.88;;;16.74;100.00
51031;BME280;37058;41.442;23.240;2023-06-04T03:41:30;100627.69;;;16.72;100.00
51031;BME280;37058;41.442;23.240;2023-06-04T03:43:56;100630.19;;;16.68;100.00
51031;BME280;37058;41.442;23.240;2023-06-04T03:46:21;100629.13;;;16.64;100.00
51031;BME280;37058;41.442;23.240;2023-06-04T03:48:50;100625.22;;;16.65;100.00
51031;BME280;37058;41.442;23.240;2023-06-04T03:51:16;100629.13;;;16.64;100.00
51031;BME280;37058;41.442;23.240;2023-06-04T03:53:41;100634.31;;;16.66;100.00
51031;BME280;37058;41.442;23.240;2023-06-04T03:56:07;100641.22;;;16.68;100.00
51031;BME280;37058;41.442;23.240;2023-06-04T03:58:35;100641.47;;;16.72;100.00
51031;BME280;37058;41.442;23.240;2023-06-04T04:01:00;100645.03;;;16.73;100.00
51031;BME280;37058;41.442;23.240;2023-06-04T04:03:26;100648.34;;;16.75;100.00
51031;BME280;37058;41.442;23.240;2023-06-04T04:05:57;100650.88;;;16.71;100.00
51031;BME280;37058;41.442;23.240;2023-06-04T04:08:23;100657.19;;;16.72;100.00
51031;BME280;37058;41.442;23.240;2023-06-04T04:10:49;100655.78;;;16.74;100.00
51031;BME280;37058;41.442;23.240;2023-06-04T04:13:15;100654.66;;;16.80;100.00
51031;BME280;37058;41.442;23.240;2023-06-04T04:15:40;100664.28;;;16.83;100.00
51031;BME280;37058;41.442;23.240;2023-06-04T04:18:06;100670.94;;;16.82;100.00
51031;BME280;37058;41.442;23.240;2023-06-04T04:20:34;100670.88;;;16.87;100.00
51031;BME280;37058;41.442;23.240;2023-06-04T04:23:00;100676.06;;;16.94;100.00
51031;BME280;37058;41.442;23.240;2023-06-04T04:25:25;100676.31;;;16.97;100.00
51031;BME280;37058;41.442;23.240;2023-06-04T04:27:52;100679.56;;;17.04;100.00
51031;BME280;37058;41.442;23.240;2023-06-04T04:30:18;100679.53;;;17.09;100.00
51031;BME280;37058;41.442;23.240;2023-06-04T04:32:45;100684.16;;;17.14;100.00
51031;BME280;37058;41.442;23.240;2023-06-04T04:35:14;100676.94;;;17.18;100.00
51031;BME280;37058;41.442;23.240;2023-06-04T04:37:44;100682.16;;;17.25;100.00
51031;BME280;37058;41.442;23.240;2023-06-04T04:40:10;100691.47;;;17.29;100.00
51031;BME280;37058;41.442;23.240;2023-06-04T04:42:37;100693.13;;;17.30;100.00
51031;BME280;37058;41.442;23.240;2023-06-04T04:45:03;100690.31;;;17.35;100.00
51031;BME280;37058;41.442;23.240;2023-06-04T04:47:29;100691.91;;;17.41;99.72
51031;BME280;37058;41.442;23.240;2023-06-04T04:49:55;100696.59;;;17.41;99.09
51031;BME280;37058;41.442;23.240;2023-06-04T04:52:21;100693.84;;;17.41;99.56
51031;BME280;37058;41.442;23.240;2023-06-04T04:54:46;100695.47;;;17.42;98.13
51031;BME280;37058;41.442;23.240;2023-06-04T04:57:12;100693.78;;;17.46;98.81
51031;BME280;37058;41.442;23.240;2023-06-04T04:59:38;100695.97;;;17.49;99.44
51031;BME280;37058;41.442;23.240;2023-06-04T05:02:04;100702.50;;;17.58;99.73
51031;BME280;37058;41.442;23.240;2023-06-04T05:04:29;100699.91;;;17.67;99.25
51031;BME280;37058;41.442;23.240;2023-06-04T05:06:55;100704.41;;;17.63;98.73
51031;BME280;37058;41.442;23.240;2023-06-04T05:09:21;100704.03;;;17.69;99.42
51031;BME280;37058;41.442;23.240;2023-06-04T05:11:47;100699.78;;;17.77;99.67
51031;BME280;37058;41.442;23.240;2023-06-04T05:14:13;100702.88;;;17.75;97.69
51031;BME280;37058;41.442;23.240;2023-06-04T05:16:38;100701.81;;;17.71;96.47
51031;BME280;37058;41.442;23.240;2023-06-04T05:19:06;100707.56;;;17.75;96.25
51031;BME280;37058;41.442;23.240;2023-06-04T05:21:32;100703.94;;;17.80;97.21
51031;BME280;37058;41.442;23.240;2023-06-04T05:23:57;100706.66;;;17.85;96.85
51031;BME280;37058;41.442;23.240;2023-06-04T05:26:23;100713.53;;;17.87;96.34
51031;BME280;37058;41.442;23.240;2023-06-04T05:28:53;100708.53;;;17.89;96.33
51031;BME280;37058;41.442;23.240;2023-06-04T05:31:19;100707.72;;;17.89;95.61
51031;BME280;37058;41.442;23.240;2023-06-04T05:33:46;100719.59;;;17.89;95.85
51031;BME280;37058;41.442;23.240;2023-06-04T05:36:13;100719.59;;;17.89;96.59
51031;BME280;37058;41.442;23.240;2023-06-04T05:38:40;100725.16;;;17.84;96.97
51031;BME280;37058;41.442;23.240;2023-06-04T05:41:05;100731.31;;;17.76;97.23
51031;BME280;37058;41.442;23.240;2023-06-04T05:43:31;100738.34;;;17.63;98.87
51031;BME280;37058;41.442;23.240;2023-06-04T05:45:57;100742.75;;;17.64;99.58
51031;BME280;37058;41.442;23.240;2023-06-04T05:48:23;100742.75;;;17.64;100.00
51031;BME280;37058;41.442;23.240;2023-06-04T05:50:48;100734.56;;;17.54;99.42
51031;BME280;37058;41.442;23.240;2023-06-04T05:53:14;100745.03;;;17.57;100.00
51031;BME280;37058;41.442;23.240;2023-06-04T05:55:40;100743.06;;;17.63;100.00
51031;BME280;37058;41.442;23.240;2023-06-04T05:58:06;100743.34;;;17.61;100.00
51031;BME280;37058;41.442;23.240;2023-06-04T06:00:32;100737.28;;;17.59;100.00
51031;BME280;37058;41.442;23.240;2023-06-04T06:02:57;100744.47;;;17.60;100.00
51031;BME280;37058;41.442;23.240;2023-06-04T06:05:23;100741.94;;;17.64;100.00
51031;BME280;37058;41.442;23.240;2023-06-04T06:07:49;100739.94;;;17.69;100.00
51031;BME280;37058;41.442;23.240;2023-06-04T06:10:14;100745.72;;;17.73;100.00
51031;BME280;37058;41.442;23.240;2023-06-04T06:12:41;100744.59;;;17.74;100.00
51031;BME280;37058;41.442;23.240;2023-06-04T06:15:07;100745.94;;;17.76;100.00
51031;BME280;37058;41.442;23.240;2023-06-04T06:17:33;100745.09;;;17.81;100.00
51031;BME280;37058;41.442;23.240;2023-06-04T06:19:59;100755.50;;;17.89;100.00
51031;BME280;37058;41.442;23.240;2023-06-04T06:22:25;100760.38;;;17.97;100.00
51031;BME280;37058;41.442;23.240;2023-06-04T06:24:51;100750.03;;;18.08;100.00
51031;BME280;37058;41.442;23.240;2023-06-04T06:27:16;100757.47;;;18.13;100.00
51031;BME280;37058;41.442;23.240;2023-06-04T06:29:43;100761.94;;;18.28;100.00
51031;BME280;37058;41.442;23.240;2023-06-04T06:32:10;100760.41;;;18.40;100.00
51031;BME280;37058;41.442;23.240;2023-06-04T06:34:36;100766.94;;;18.50;100.00
51031;BME280;37058;41.442;23.240;2023-06-04T06:37:02;100764.03;;;18.60;99.98
51031;BME280;37058;41.442;23.240;2023-06-04T06:39:28;100762.78;;;18.71;99.50
51031;BME280;37058;41.442;23.240;2023-06-04T06:41:54;100762.88;;;18.85;99.04
51031;BME280;37058;41.442;23.240;2023-06-04T06:44:20;100765.56;;;18.90;96.74
51031;BME280;37058;41.442;23.240;2023-06-04T06:46:46;100772.06;;;18.99;96.18
51031;BME280;37058;41.442;23.240;2023-06-04T06:49:15;100768.31;;;19.09;94.81
51031;BME280;37058;41.442;23.240;2023-06-04T06:51:40;100778.38;;;19.19;94.15
51031;BME280;37058;41.442;23.240;2023-06-04T06:54:08;100779.97;;;19.25;92.54
51031;BME280;37058;41.442;23.240;2023-06-04T06:56:34;100774.50;;;19.20;90.55
51031;BME280;37058;41.442;23.240;2023-06-04T06:59:00;100773.97;;;19.18;91.40
51031;BME280;37058;41.442;23.240;2023-06-04T07:01:26;100771.50;;;19.16;92.45
51031;BME280;37058;41.442;23.240;2023-06-04T07:03:52;100776.47;;;19.19;92.45
51031;BME280;37058;41.442;23.240;2023-06-04T07:06:17;100776.53;;;19.14;90.68
51031;BME280;37058;41.442;23.240;2023-06-04T07:08:43;100779.72;;;19.21;92.05
51031;BME280;37058;41.442;23.240;2023-06-04T07:11:09;100786.31;;;19.25;91.22
51031;BME280;37058;41.442;23.240;2023-06-04T07:13:38;100780.69;;;19.31;91.82
51031;BME280;37058;41.442;23.240;2023-06-04T07:16:04;100778.69;;;19.17;91.57
51031;BME280;37058;41.442;23.240;2023-06-04T07:18:30;100780.16;;;19.28;93.33
51031;BME280;37058;41.442;23.240;2023-06-04T07:20:56;100784.72;;;19.38;92.60
51031;BME280;37058;41.442;23.240;2023-06-04T07:23:22;100790.16;;;19.43;89.82
51031;BME280;37058;41.442;23.240;2023-06-04T07:25:47;100787.00;;;19.50;91.43
51031;BME280;37058;41.442;23.240;2023-06-04T07:28:13;100782.63;;;19.63;91.53
51031;BME280;37058;41.442;23.240;2023-06-04T07:30:39;100779.38;;;19.75;91.09
51031;BME280;37058;41.442;23.240;2023-06-04T07:33:05;100786.06;;;19.87;90.23
51031;BME280;37058;41.442;23.240;2023-06-04T07:35:31;100781.19;;;19.98;90.41
51031;BME280;37058;41.442;23.240;2023-06-04T07:37:57;100784.16;;;20.02;89.55
51031;BME280;37058;41.442;23.240;2023-06-04T07:40:23;100787.63;;;20.07;89.99
51031;BME280;37058;41.442;23.240;2023-06-04T07:42:49;100790.91;;;20.09;89.03
51031;BME280;37058;41.442;23.240;2023-06-04T07:45:15;100792.47;;;20.02;87.97
51031;BME280;37058;41.442;23.240;2023-06-04T07:47:42;100788.47;;;20.08;87.86
51031;BME280;37058;41.442;23.240;2023-06-04T07:50:08;100789.38;;;20.17;89.03
51031;BME280;37058;41.442;23.240;2023-06-04T07:52:33;100801.72;;;20.25;89.05
51031;BME280;37058;41.442;23.240;2023-06-04T07:54:59;100798.94;;;20.25;87.67
51031;BME280;37058;41.442;23.240;2023-06-04T07:57:25;100796.25;;;20.20;85.73
51031;BME280;37058;41.442;23.240;2023-06-04T07:59:51;100810.16;;;20.33;88.12
51031;BME280;37058;41.442;23.240;2023-06-04T08:02:18;100799.13;;;20.42;87.39
51031;BME280;37058;41.442;23.240;2023-06-04T08:04:44;100807.78;;;20.54;84.79
51031;BME280;37058;41.442;23.240;2023-06-04T08:07:11;100801.63;;;20.58;85.04
51031;BME280;37058;41.442;23.240;2023-06-04T08:09:37;100807.97;;;20.72;85.81
51031;BME280;37058;41.442;23.240;2023-06-04T08:12:03;100809.09;;;20.71;83.06
51031;BME280;37058;41.442;23.240;2023-06-04T08:14:29;100812.25;;;20.78;82.63
51031;BME280;37058;41.442;23.240;2023-06-04T08:16:54;100808.84;;;20.95;82.63
51031;BME280;37058;41.442;23.240;2023-06-04T08:19:20;100815.28;;;21.04;83.04
51031;BME280;37058;41.442;23.240;2023-06-04T08:21:46;100803.31;;;21.17;80.23
51031;BME280;37058;41.442;23.240;2023-06-04T08:24:13;100812.72;;;21.30;79.14
51031;BME280;37058;41.442;23.240;2023-06-04T08:26:39;100810.75;;;21.45;78.90
51031;BME280;37058;41.442;23.240;2023-06-04T08:29:05;100811.97;;;21.61;78.32
51031;BME280;37058;41.442;23.240;2023-06-04T08:31:31;100811.88;;;21.75;77.46
51031;BME280;37058;41.442;23.240;2023-06-04T08:33:57;100815.25;;;21.85;77.19
51031;BME280;37058;41.442;23.240;2023-06-04T08:36:22;100808.91;;;21.94;76.01
51031;BME280;37058;41.442;23.240;2023-06-04T08:38:48;100806.63;;;21.96;75.29
51031;BME280;37058;41.442;23.240;2023-06-04T08:41:30;100805.66;;;22.00;72.23
51031;BME280;37058;41.442;23.240;2023-06-04T08:43:57;100800.44;;;22.07;73.02
51031;BME280;37058;41.442;23.240;2023-06-04T08:46:23;100800.63;;;22.11;73.76
51031;BME280;37058;41.442;23.240;2023-06-04T08:48:49;100803.91;;;22.13;74.21
51031;BME280;37058;41.442;23.240;2023-06-04T08:51:15;100799.22;;;22.22;74.18
51031;BME280;37058;41.442;23.240;2023-06-04T08:53:42;100799.72;;;22.33;72.99
51031;BME280;37058;41.442;23.240;2023-06-04T08:56:08;100805.00;;;22.35;73.17
51031;BME280;37058;41.442;23.240;2023-06-04T08:58:36;100796.03;;;22.46;73.26
51031;BME280;37058;41.442;23.240;2023-06-04T09:01:02;100795.69;;;22.48;72.72
51031;BME280;37058;41.442;23.240;2023-06-04T09:03:29;100796.03;;;22.55;71.16
51031;BME280;37058;41.442;23.240;2023-06-04T09:06:01;100792.44;;;22.46;71.70
51031;BME280;37058;41.442;23.240;2023-06-04T09:08:30;100795.38;;;22.49;72.41
51031;BME280;37058;41.442;23.240;2023-06-04T09:10:57;100786.06;;;22.54;72.69
51031;BME280;37058;41.442;23.240;2023-06-04T09:13:27;100788.69;;;22.59;69.86
51031;BME280;37058;41.442;23.240;2023-06-04T09:16:04;100786.41;;;22.70;69.04
51031;BME280;37058;41.442;23.240;2023-06-04T09:18:30;100773.78;;;22.81;68.82
51031;BME280;37058;41.442;23.240;2023-06-04T09:21:03;100769.88;;;22.91;69.15
51031;BME280;37058;41.442;23.240;2023-06-04T09:23:29;100771.69;;;22.96;67.18
51031;BME280;37058;41.442;23.240;2023-06-04T09:25:55;100765.16;;;23.00;67.46
51031;BME280;37058;41.442;23.240;2023-06-04T09:28:21;100767.13;;;23.00;65.73
51031;BME280;37058;41.442;23.240;2023-06-04T09:30:51;100771.06;;;23.07;65.02
51031;BME280;37058;41.442;23.240;2023-06-04T09:33:17;100759.28;;;23.02;65.42
51031;BME280;37058;41.442;23.240;2023-06-04T09:35:53;100759.59;;;23.00;65.13
51031;BME280;37058;41.442;23.240;2023-06-04T09:38:19;100754.66;;;23.06;64.88
51031;BME280;37058;41.442;23.240;2023-06-04T09:40:45;100758.44;;;23.01;65.30
51031;BME280;37058;41.442;23.240;2023-06-04T09:43:11;100751.72;;;23.02;65.56
51031;BME280;37058;41.442;23.240;2023-06-04T09:45:46;100746.63;;;23.13;65.70
51031;BME280;37058;41.442;23.240;2023-06-04T09:48:19;100752.69;;;23.06;64.26
51031;BME280;37058;41.442;23.240;2023-06-04T09:50:45;100747.28;;;23.19;65.65
51031;BME280;37058;41.442;23.240;2023-06-04T09:53:18;100747.09;;;23.24;66.87
51031;BME280;37058;41.442;23.240;2023-06-04T09:55:56;100741.34;;;23.29;65.19
51031;BME280;37058;41.442;23.240;2023-06-04T09:58:23;100747.75;;;23.38;66.77
51031;BME280;37058;41.442;23.240;2023-06-04T10:00:51;100742.31;;;23.42;66.22
51031;BME280;37058;41.442;23.240;2023-06-04T10:03:18;100743.63;;;23.44;65.48
51031;BME280;37058;41.442;23.240;2023-06-04T10:05:48;100732.97;;;23.46;65.56
51031;BME280;37058;41.442;23.240;2023-06-04T10:08:15;100738.03;;;23.44;65.48
51031;BME280;37058;41.442;23.240;2023-06-04T10:10:42;100730.19;;;23.46;65.75
51031;BME280;37058;41.442;23.240;2023-06-04T10:16:08;100716.81;;;23.78;65.11
51031;BME280;37058;41.442;23.240;2023-06-04T10:18:36;100715.09;;;23.94;65.29
51031;BME280;37058;41.442;23.240;2023-06-04T10:21:02;100717.50;;;24.05;63.85
51031;BME280;37058;41.442;23.240;2023-06-04T10:23:29;100710.03;;;24.17;63.83
51031;BME280;37058;41.442;23.240;2023-06-04T10:25:54;100698.16;;;24.29;64.65
51031;BME280;37058;41.442;23.240;2023-06-04T10:28:22;100705.16;;;24.35;61.95
51031;BME280;37058;41.442;23.240;2023-06-04T10:30:51;100696.22;;;24.51;63.59
51031;BME280;37058;41.442;23.240;2023-06-04T10:33:21;100699.09;;;24.63;62.42
51031;BME280;37058;41.442;23.240;2023-06-04T10:35:53;100690.50;;;24.68;58.34
51031;BME280;37058;41.442;23.240;2023-06-04T10:38:21;100691.25;;;24.77;58.27
51031;BME280;37058;41.442;23.240;2023-06-04T10:40:47;100686.88;;;24.88;58.83
51031;BME280;37058;41.442;23.240;2023-06-04T10:43:14;100687.28;;;24.99;58.51
51031;BME280;37058;41.442;23.240;2023-06-04T10:45:44;100681.47;;;25.04;52.80
51031;BME280;37058;41.442;23.240;2023-06-04T10:48:12;100687.44;;;25.15;52.87
51031;BME280;37058;41.442;23.240;2023-06-04T10:50:52;100669.56;;;25.28;52.59
51031;BME280;37058;41.442;23.240;2023-06-04T10:53:18;100681.69;;;25.33;50.05
51031;BME280;37058;41.442;23.240;2023-06-04T10:55:48;100672.13;;;25.34;49.17
51031;BME280;37058;41.442;23.240;2023-06-04T10:58:14;100667.59;;;25.41;49.41
51031;BME280;37058;41.442;23.240;2023-06-04T11:00:45;100668.88;;;25.44;48.08
51031;BME280;37058;41.442;23.240;2023-06-04T11:03:12;100673.91;;;25.38;47.65
51031;BME280;37058;41.442;23.240;2023-06-04T11:05:40;100660.50;;;25.44;48.70
51031;BME280;37058;41.442;23.240;2023-06-04T11:08:06;100659.78;;;25.47;48.89
51031;BME280;37058;41.442;23.240;2023-06-04T11:10:36;100666.00;;;25.52;49.91
51031;BME280;37058;41.442;23.240;2023-06-04T11:13:03;100665.31;;;25.56;46.91
51031;BME280;37058;41.442;23.240;2023-06-04T11:15:45;100658.66;;;25.60;48.28
51031;BME280;37058;41.442;23.240;2023-06-04T11:18:17;100663.56;;;25.63;46.83
51031;BME280;37058;41.442;23.240;2023-06-04T11:20:44;100655.16;;;25.63;47.64
51031;BME280;37058;41.442;23.240;2023-06-04T11:23:12;100659.50;;;25.73;48.43
51031;BME280;37058;41.442;23.240;2023-06-04T11:25:38;100658.31;;;25.74;47.17
51031;BME280;37058;41.442;23.240;2023-06-04T11:28:04;100656.31;;;25.74;45.89
51031;BME280;37058;41.442;23.240;2023-06-04T11:30:30;100652.84;;;25.78;47.36
51031;BME280;37058;41.442;23.240;2023-06-04T11:33:05;100652.47;;;25.79;49.17
51031;BME280;37058;41.442;23.240;2023-06-04T11:35:39;100646.66;;;25.84;50.52
51031;BME280;37058;41.442;23.240;2023-06-04T11:38:05;100652.03;;;25.89;50.05
51031;BME280;37058;41.442;23.240;2023-06-04T11:40:31;100649.38;;;25.93;50.08
51031;BME280;37058;41.442;23.240;2023-06-04T11:42:56;100643.88;;;25.97;49.14
51031;BME280;37058;41.442;23.240;2023-06-04T11:45:23;100644.69;;;25.97;49.22
51031;BME280;37058;41.442;23.240;2023-06-04T11:47:54;100632.69;;;25.97;51.50
51031;BME280;37058;41.442;23.240;2023-06-04T11:50:21;100636.06;;;25.90;51.64
51031;BME280;37058;41.442;23.240;2023-06-04T11:52:48;100638.19;;;25.93;51.94
51031;BME280;37058;41.442;23.240;2023-06-04T11:55:15;100638.38;;;26.00;50.97
51031;BME280;37058;41.442;23.240;2023-06-04T11:57:43;100632.19;;;26.07;50.35
51031;BME280;37058;41.442;23.240;2023-06-04T12:00:09;100634.41;;;26.13;50.58
51031;BME280;37058;41.442;23.240;2023-06-04T12:02:36;100633.94;;;26.24;49.80
51031;BME280;37058;41.442;23.240;2023-06-04T12:05:15;100624.56;;;26.32;49.57
51031;BME280;37058;41.442;23.240;2023-06-04T12:07:44;100628.31;;;26.36;49.64
51031;BME280;37058;41.442;23.240;2023-06-04T12:10:10;100634.09;;;26.43;51.74
51031;BME280;37058;41.442;23.240;2023-06-04T12:12:39;100633.50;;;26.50;50.80
51031;BME280;37058;41.442;23.240;2023-06-04T12:15:08;100630.13;;;26.44;48.58
51031;BME280;37058;41.442;23.240;2023-06-04T12:17:36;100625.13;;;26.37;49.37
51031;BME280;37058;41.442;23.240;2023-06-04T12:20:03;100624.31;;;26.37;49.72
51031;BME280;37058;41.442;23.240;2023-06-04T12:22:30;100618.63;;;26.33;51.19
51031;BME280;37058;41.442;23.240;2023-06-04T12:24:57;100621.53;;;26.37;51.78
51031;BME280;37058;41.442;23.240;2023-06-04T12:27:24;100631.19;;;26.40;50.06
51031;BME280;37058;41.442;23.240;2023-06-04T12:32:22;100624.75;;;26.51;52.56
51031;BME280;37058;41.442;23.240;2023-06-04T12:34:48;100624.97;;;26.58;49.13
51031;BME280;37058;41.442;23.240;2023-06-04T12:37:13;100624.34;;;26.65;50.12
51031;BME280;37058;41.442;23.240;2023-06-04T12:39:39;100622.09;;;26.71;49.27
51031;BME280;37058;41.442;23.240;2023-06-04T12:42:06;100617.44;;;26.75;48.60
51031;BME280;37058;41.442;23.240;2023-06-04T12:44:32;100622.44;;;26.82;48.72
51031;BME280;37058;41.442;23.240;2023-06-04T12:46:58;100609.78;;;26.88;47.33